Time;durP1;ratioP1;P1;durP2;ratioP2;P2;SDS_P1;SDS_P2;PMS_P1;PMS_P2;Temp;Humidity;BMP_temperature;BMP_pressure;BME280_temperature;BME280_humidity;BME280_pressure;Samples;Min_cycle;Max_cycle;Signal;HPM_P1;HPM_P2
2021/11/29 00:01:57;;;;;;;34.07;5.47;;;15.20;99.90;;;;;;5005627;28;20203;-65
2021/11/29 00:04:25;;;;;;;41.90;5.80;;;15.30;99.90;;;;;;5006766;28;21068;-64
2021/11/29 00:06:51;;;;;;;31.97;5.80;;;15.30;99.90;;;;;;5006480;28;20275;-64
2021/11/29 00:09:17;;;;;;;34.03;5.50;;;15.40;99.90;;;;;;5006657;28;20263;-64
2021/11/29 00:11:44;;;;;;;34.50;5.30;;;15.40;99.90;;;;;;5007397;28;20185;-64
2021/11/29 00:14:10;;;;;;;32.77;5.13;;;15.40;99.90;;;;;;5005156;28;20661;-64
2021/11/29 00:16:37;;;;;;;32.90;4.30;;;15.50;99.90;;;;;;5005225;28;20197;-63
2021/11/29 00:19:05;;;;;;;27.27;6.30;;;15.50;99.90;;;;;;4999569;28;20187;-63
2021/11/29 00:21:35;;;;;;;32.97;5.53;;;15.50;99.90;;;;;;5005866;28;20192;-63
2021/11/29 00:24:04;;;;;;;31.57;5.27;;;15.50;99.90;;;;;;4998615;28;20269;-63
2021/11/29 00:26:30;;;;;;;33.90;5.50;;;15.50;99.90;;;;;;5006386;28;20300;-63
2021/11/29 00:28:57;;;;;;;37.17;5.77;;;15.50;99.90;;;;;;4993874;28;20289;-64
2021/11/29 00:31:23;;;;;;;44.30;5.57;;;15.50;99.90;;;;;;4999899;28;20605;-62
2021/11/29 00:33:50;;;;;;;42.40;5.93;;;15.50;99.90;;;;;;5012277;28;20280;-63
2021/11/29 00:36:16;;;;;;;33.97;5.47;;;15.50;99.90;;;;;;4999240;28;20212;-63
2021/11/29 00:38:43;;;;;;;42.23;4.90;;;15.50;99.90;;;;;;5000296;28;20331;-63
2021/11/29 00:41:10;;;;;;;26.43;4.80;;;15.50;99.90;;;;;;5001750;28;20193;-63
2021/11/29 00:43:36;;;;;;;36.40;5.47;;;15.50;99.90;;;;;;5002169;28;21602;-63
2021/11/29 00:46:02;;;;;;;29.03;4.60;;;15.60;99.90;;;;;;4998786;28;20181;-64
2021/11/29 00:48:29;;;;;;;30.90;5.10;;;15.60;99.90;;;;;;5038308;28;20216;-64
2021/11/29 00:50:55;;;;;;;37.23;5.40;;;15.70;99.90;;;;;;5005189;28;20837;-64
2021/11/29 00:53:21;;;;;;;28.27;5.00;;;15.70;99.90;;;;;;5006164;28;20212;-66
2021/11/29 00:55:48;;;;;;;37.17;5.13;;;15.70;99.90;;;;;;5007117;28;20294;-65
2021/11/29 00:58:14;;;;;;;36.43;5.23;;;15.80;99.90;;;;;;5003531;28;20623;-65
2021/11/29 01:00:41;;;;;;;29.13;4.73;;;15.70;99.90;;;;;;4994637;28;20984;-65
2021/11/29 01:03:08;;;;;;;39.73;5.47;;;15.70;99.90;;;;;;5004958;28;20195;-65
2021/11/29 01:05:34;;;;;;;47.20;5.40;;;15.70;99.90;;;;;;5006444;28;20196;-66
2021/11/29 01:08:03;;;;;;;40.20;5.70;;;15.80;99.90;;;;;;4989260;28;20221;-65
2021/11/29 01:10:31;;;;;;;48.93;6.00;;;15.90;99.90;;;;;;5005795;28;20221;-65
2021/11/29 01:12:58;;;;;;;39.70;6.03;;;16.30;99.90;;;;;;5001466;28;20668;-66
2021/11/29 01:15:36;;;;;;;40.97;6.17;;;16.50;99.90;;;;;;5005233;28;20207;-66
2021/11/29 01:18:11;;;;;;;43.60;6.90;;;16.60;99.90;;;;;;4989100;28;20184;-65
2021/11/29 01:20:41;;;;;;;44.43;7.37;;;16.60;99.90;;;;;;5004199;28;20196;-64
2021/11/29 01:23:08;;;;;;;39.10;6.60;;;16.60;99.90;;;;;;5006497;28;20873;-65
2021/11/29 01:25:34;;;;;;;50.27;7.63;;;16.60;99.90;;;;;;5004181;28;20455;-65
2021/11/29 01:28:01;;;;;;;42.43;6.13;;;16.60;99.90;;;;;;5006538;28;20678;-64
2021/11/29 01:30:27;;;;;;;41.33;6.13;;;16.50;99.90;;;;;;4995802;28;20573;-65
2021/11/29 01:32:53;;;;;;;53.43;7.13;;;16.50;99.90;;;;;;5014859;28;20213;-65
2021/11/29 01:35:20;;;;;;;45.40;7.23;;;16.50;99.90;;;;;;4999889;28;20196;-65
2021/11/29 01:37:46;;;;;;;50.80;6.77;;;16.50;99.90;;;;;;5002644;28;20980;-64
2021/11/29 01:40:14;;;;;;;43.33;7.00;;;16.50;99.90;;;;;;5000386;28;20201;-65
2021/11/29 01:43:15;;;;;;;50.90;7.93;;;16.60;99.90;;;;;;5000775;28;20275;-64
2021/11/29 01:45:50;;;;;;;48.67;7.23;;;16.50;99.90;;;;;;5000245;28;20211;-65
2021/11/29 01:48:17;;;;;;;41.70;7.37;;;16.50;99.90;;;;;;5000384;28;20203;-64
2021/11/29 01:50:49;;;;;;;47.77;7.13;;;16.50;99.90;;;;;;5000329;28;20217;-63
2021/11/29 01:53:18;;;;;;;49.37;7.43;;;16.60;99.90;;;;;;5015319;28;20199;-64
2021/11/29 01:55:47;;;;;;;55.27;8.73;;;16.60;99.90;;;;;;5000390;28;20271;-64
2021/11/29 01:58:14;;;;;;;75.47;8.53;;;16.60;99.90;;;;;;5016056;28;20188;-64
2021/11/29 02:00:47;;;;;;;57.07;7.37;;;16.70;99.90;;;;;;5027792;28;20958;-65
2021/11/29 02:03:15;;;;;;;55.43;7.40;;;16.70;99.90;;;;;;5010762;28;20224;-65
2021/11/29 02:05:42;;;;;;;50.77;8.13;;;16.70;99.90;;;;;;5000531;28;20275;-65
2021/11/29 02:08:10;;;;;;;74.40;8.80;;;16.80;99.90;;;;;;5031146;28;20184;-64
2021/11/29 02:10:36;;;;;;;87.00;8.70;;;16.80;99.90;;;;;;4999168;28;20209;-65
2021/11/29 02:13:03;;;;;;;62.20;8.13;;;16.90;99.90;;;;;;5015301;28;20309;-65
2021/11/29 02:15:30;;;;;;;78.40;8.63;;;16.90;99.90;;;;;;5000566;28;20685;-65
2021/11/29 02:17:59;;;;;;;66.87;8.53;;;16.90;99.90;;;;;;4998519;28;20215;-64
2021/11/29 02:20:34;;;;;;;73.67;9.00;;;17.00;99.90;;;;;;5000066;28;20654;-65
2021/11/29 02:23:02;;;;;;;58.13;9.30;;;17.00;99.90;;;;;;4994826;28;20207;-65
2021/11/29 02:25:29;;;;;;;70.37;9.97;;;17.00;99.90;;;;;;4996775;28;20193;-65
2021/11/29 02:27:57;;;;;;;80.20;9.13;;;17.10;99.90;;;;;;4999815;28;20205;-65
2021/11/29 02:30:25;;;;;;;51.17;8.17;;;17.10;99.90;;;;;;5001315;28;20235;-63
2021/11/29 02:32:54;;;;;;;78.23;9.97;;;17.10;99.90;;;;;;4996036;28;20219;-64
2021/11/29 02:35:21;;;;;;;55.10;9.50;;;17.20;99.90;;;;;;5002783;28;20195;-65
2021/11/29 02:37:49;;;;;;;50.13;9.53;;;17.20;99.90;;;;;;5002824;28;20197;-65
2021/11/29 02:40:15;;;;;;;57.67;8.60;;;17.20;99.90;;;;;;5003071;28;20189;-65
2021/11/29 02:42:41;;;;;;;55.73;8.87;;;17.20;99.90;;;;;;5003069;28;20239;-66
2021/11/29 02:45:08;;;;;;;65.43;9.77;;;17.20;99.90;;;;;;5001830;28;20197;-66
2021/11/29 02:47:35;;;;;;;73.17;8.90;;;17.20;99.90;;;;;;5018326;28;20197;-66
2021/11/29 02:50:01;;;;;;;71.07;9.47;;;17.20;99.90;;;;;;5003303;28;20296;-66
2021/11/29 02:52:27;;;;;;;61.70;8.97;;;17.20;99.90;;;;;;5003203;28;20642;-65
2021/11/29 02:54:54;;;;;;;76.80;10.70;;;17.20;99.90;;;;;;5003237;28;20200;-65
2021/11/29 02:57:22;;;;;;;63.73;9.33;;;17.20;99.90;;;;;;5003759;28;20334;-65
2021/11/29 02:59:49;;;;;;;72.53;9.37;;;17.10;99.90;;;;;;5010990;28;20201;-65
2021/11/29 03:02:19;;;;;;;64.60;9.17;;;17.10;99.90;;;;;;5015227;28;20375;-65
2021/11/29 03:04:47;;;;;;;78.03;11.30;;;17.10;99.90;;;;;;5013010;28;20291;-65
2021/11/29 03:07:15;;;;;;;75.90;10.83;;;17.10;99.90;;;;;;5034578;28;20193;-65
2021/11/29 03:09:42;;;;;;;88.03;10.63;;;17.10;99.90;;;;;;5002367;28;20221;-64
2021/11/29 03:12:09;;;;;;;65.60;10.50;;;17.10;99.90;;;;;;5001053;28;20189;-64
2021/11/29 03:14:36;;;;;;;79.10;10.07;;;17.10;99.90;;;;;;5003193;28;20188;-65
2021/11/29 03:17:04;;;;;;;66.70;10.53;;;17.10;99.90;;;;;;5035104;28;20201;-64
2021/11/29 03:19:34;;;;;;;82.00;10.53;;;17.10;99.90;;;;;;5017229;28;20658;-64
2021/11/29 03:22:05;;;;;;;80.53;11.17;;;17.10;99.90;;;;;;5002589;28;20243;-65
2021/11/29 03:24:32;;;;;;;84.27;11.67;;;17.00;99.90;;;;;;5002965;28;20197;-64
2021/11/29 03:26:58;;;;;;;85.33;11.17;;;17.00;99.90;;;;;;5017169;28;20321;-64
2021/11/29 03:29:27;;;;;;;65.50;9.90;;;16.90;99.90;;;;;;5003164;28;20220;-64
2021/11/29 03:31:59;;;;;;;97.77;11.13;;;16.80;99.90;;;;;;5001369;28;20212;-64
2021/11/29 03:34:27;;;;;;;81.43;10.77;;;16.80;99.90;;;;;;4994945;28;22078;-64
2021/11/29 03:36:54;;;;;;;71.20;11.17;;;16.70;99.90;;;;;;5002096;28;20196;-65
2021/11/29 03:39:24;;;;;;;93.90;11.63;;;16.60;99.90;;;;;;5002886;28;20204;-65
2021/11/29 03:41:55;;;;;;;76.27;10.47;;;16.50;99.90;;;;;;4999028;28;21009;-64
2021/11/29 03:44:22;;;;;;;79.50;12.10;;;16.40;99.90;;;;;;5002666;28;20235;-64
2021/11/29 03:46:53;;;;;;;81.23;11.10;;;16.40;99.90;;;;;;5009837;28;20181;-64
2021/11/29 03:49:20;;;;;;;74.07;12.37;;;16.30;99.90;;;;;;5001946;28;20285;-64
2021/11/29 03:51:47;;;;;;;73.67;11.23;;;16.20;99.90;;;;;;5001649;28;20606;-64
2021/11/29 03:54:13;;;;;;;70.67;11.77;;;16.20;99.90;;;;;;5002413;28;20877;-63
2021/11/29 03:56:40;;;;;;;79.77;10.63;;;16.10;99.90;;;;;;5001189;28;20193;-63
2021/11/29 03:59:07;;;;;;;73.67;9.93;;;16.00;99.90;;;;;;5000682;28;20228;-64
2021/11/29 04:01:33;;;;;;;74.93;10.90;;;15.90;99.90;;;;;;5016715;28;20289;-64
2021/11/29 04:04:05;;;;;;;77.53;10.53;;;15.80;99.90;;;;;;4999429;28;20203;-64
2021/11/29 04:06:31;;;;;;;74.37;10.73;;;15.80;99.90;;;;;;4997737;28;20193;-66
2021/11/29 04:08:58;;;;;;;89.33;10.73;;;15.80;99.90;;;;;;5000449;28;20613;-68
2021/11/29 04:11:25;;;;;;;65.77;10.80;;;15.70;99.90;;;;;;5000278;28;20224;-65
2021/11/29 04:13:51;;;;;;;69.27;10.37;;;15.70;99.90;;;;;;5000461;28;20216;-65
2021/11/29 04:16:18;;;;;;;72.73;10.47;;;15.80;99.90;;;;;;5000612;28;20193;-65
2021/11/29 04:18:45;;;;;;;78.30;10.40;;;15.80;99.90;;;;;;5002658;28;20264;-65
2021/11/29 04:21:14;;;;;;;69.27;9.83;;;15.90;99.90;;;;;;4998157;28;20233;-64
2021/11/29 04:23:45;;;;;;;77.47;10.83;;;15.90;99.90;;;;;;5002234;28;20291;-64
2021/11/29 04:26:16;;;;;;;82.07;11.40;;;15.80;99.90;;;;;;5002074;28;20196;-64
2021/11/29 04:28:43;;;;;;;67.37;10.13;;;15.80;99.90;;;;;;5002772;28;20201;-64
2021/11/29 04:31:10;;;;;;;60.53;10.73;;;15.80;99.90;;;;;;5001050;28;20234;-64
2021/11/29 04:33:36;;;;;;;76.23;10.70;;;15.80;99.90;;;;;;5000989;28;20223;-63
2021/11/29 04:36:03;;;;;;;80.10;11.07;;;15.90;99.90;;;;;;4995068;28;20192;-64
2021/11/29 04:38:32;;;;;;;78.70;11.00;;;15.90;99.90;;;;;;4980436;28;20684;-64
2021/11/29 04:40:59;;;;;;;63.63;11.47;;;15.90;99.90;;;;;;5000688;28;20251;-64
2021/11/29 04:43:26;;;;;;;80.20;11.13;;;15.90;99.90;;;;;;4999084;28;20304;-64
2021/11/29 04:45:52;;;;;;;70.37;10.23;;;15.80;99.90;;;;;;5002397;28;20542;-64
2021/11/29 04:48:18;;;;;;;74.57;10.57;;;15.80;99.90;;;;;;5015886;28;20207;-64
2021/11/29 04:50:45;;;;;;;69.73;11.13;;;15.80;99.90;;;;;;5001587;28;21023;-64
2021/11/29 04:53:11;;;;;;;69.33;10.90;;;15.90;99.90;;;;;;5016165;28;20193;-64
2021/11/29 04:55:38;;;;;;;82.53;11.30;;;15.90;99.90;;;;;;5000105;28;20193;-64
2021/11/29 04:58:04;;;;;;;74.00;10.90;;;16.00;99.90;;;;;;4998823;28;20193;-65
2021/11/29 05:00:30;;;;;;;82.87;10.53;;;16.00;99.90;;;;;;4999420;28;20271;-64
2021/11/29 05:02:57;;;;;;;77.77;10.40;;;16.10;99.90;;;;;;5001697;28;20215;-64
2021/11/29 05:05:23;;;;;;;70.93;10.43;;;16.10;99.90;;;;;;5001111;28;20204;-65
2021/11/29 05:07:49;;;;;;;62.80;10.57;;;16.20;99.90;;;;;;4993570;28;20971;-64
2021/11/29 05:10:16;;;;;;;70.43;10.20;;;16.20;99.90;;;;;;4999171;28;20255;-64
2021/11/29 05:12:42;;;;;;;64.53;9.17;;;16.30;99.90;;;;;;4997382;28;20193;-64
2021/11/29 05:15:09;;;;;;;70.40;10.77;;;16.40;99.90;;;;;;5015830;28;20221;-64
2021/11/29 05:17:35;;;;;;;69.90;9.93;;;16.40;99.90;;;;;;5001891;28;20205;-64
2021/11/29 05:20:03;;;;;;;65.33;9.37;;;16.50;99.90;;;;;;5001214;28;20193;-65
2021/11/29 05:22:29;;;;;;;67.93;10.47;;;16.60;99.90;;;;;;5014168;28;20205;-65
2021/11/29 05:24:55;;;;;;;73.20;12.13;;;16.60;99.90;;;;;;5000295;28;20205;-65
2021/11/29 05:27:22;;;;;;;74.90;10.53;;;16.70;99.90;;;;;;4999969;28;20207;-65
2021/11/29 05:29:48;;;;;;;58.60;10.37;;;16.70;99.90;;;;;;5000788;28;20229;-65
2021/11/29 05:32:15;;;;;;;71.80;11.90;;;16.80;99.90;;;;;;4998977;28;20832;-64
2021/11/29 05:34:41;;;;;;;66.00;10.40;;;17.00;99.90;;;;;;5000133;28;20181;-65
2021/11/29 05:37:07;;;;;;;69.47;10.47;;;17.10;99.90;;;;;;4997647;28;20204;-65
2021/11/29 05:39:34;;;;;;;96.80;11.77;;;17.20;99.90;;;;;;4994207;28;20193;-66
2021/11/29 05:42:01;;;;;;;76.13;11.83;;;17.30;99.90;;;;;;4998693;28;20219;-66
2021/11/29 05:44:28;;;;;;;67.77;10.90;;;17.50;99.90;;;;;;5030997;28;20192;-65
2021/11/29 05:46:54;;;;;;;73.63;11.37;;;17.60;99.90;;;;;;5015786;28;20200;-65
2021/11/29 05:49:20;;;;;;;77.97;11.00;;;17.80;99.90;;;;;;5001489;28;20290;-65
2021/11/29 05:51:47;;;;;;;82.33;11.53;;;17.90;99.90;;;;;;4997588;28;20193;-65
2021/11/29 05:54:13;;;;;;;71.33;12.13;;;18.00;99.90;;;;;;5000344;28;20199;-66
2021/11/29 05:56:39;;;;;;;77.47;10.87;;;18.20;99.90;;;;;;5000897;28;20326;-66
2021/11/29 05:59:06;;;;;;;68.17;11.67;;;18.30;99.90;;;;;;5015468;28;20188;-65
2021/11/29 06:01:34;;;;;;;67.20;12.03;;;18.40;99.90;;;;;;5014944;28;20829;-66
2021/11/29 06:04:01;;;;;;;80.90;12.03;;;18.40;99.90;;;;;;4998724;28;20219;-66
2021/11/29 06:06:27;;;;;;;75.70;11.10;;;18.50;99.90;;;;;;5015781;28;20204;-65
2021/11/29 06:08:54;;;;;;;59.90;10.90;;;18.60;99.90;;;;;;4991716;28;20208;-66
2021/11/29 06:11:20;;;;;;;66.83;10.17;;;18.70;99.90;;;;;;4997759;28;20808;-66
2021/11/29 06:13:46;;;;;;;78.20;12.33;;;18.70;99.90;;;;;;4993404;28;20192;-64
2021/11/29 06:16:13;;;;;;;65.67;11.63;;;18.90;99.90;;;;;;5010170;28;20191;-64
2021/11/29 06:18:39;;;;;;;58.93;10.27;;;19.00;99.90;;;;;;4998831;28;20193;-65
2021/11/29 06:21:06;;;;;;;62.80;12.13;;;19.00;99.90;;;;;;4999908;28;20204;-65
2021/11/29 06:23:32;;;;;;;64.60;12.33;;;19.20;99.90;;;;;;4982941;28;20291;-65
2021/11/29 06:25:59;;;;;;;67.70;11.70;;;19.20;99.90;;;;;;5000996;28;22100;-64
2021/11/29 06:28:27;;;;;;;49.83;10.93;;;19.20;99.90;;;;;;4998774;28;20931;-65
2021/11/29 06:30:54;;;;;;;82.73;12.57;;;19.20;99.90;;;;;;5000159;28;20213;-64
2021/11/29 06:33:20;;;;;;;67.30;11.03;;;19.40;99.90;;;;;;4999964;28;20245;-64
2021/11/29 06:35:47;;;;;;;65.57;10.67;;;19.20;99.90;;;;;;5006721;28;20189;-65
2021/11/29 06:38:13;;;;;;;72.90;10.87;;;19.20;99.90;;;;;;5030339;28;20277;-65
2021/11/29 06:40:47;;;;;;;62.20;11.20;;;19.20;99.90;;;;;;4992368;28;20856;-65
2021/11/29 06:43:14;;;;;;;73.63;9.73;;;19.20;99.90;;;;;;5031894;28;20180;-65
2021/11/29 06:45:40;;;;;;;73.47;11.53;;;19.20;99.90;;;;;;5030021;28;20212;-64
2021/11/29 06:48:06;;;;;;;77.97;10.53;;;19.20;99.90;;;;;;5005746;28;20189;-64
2021/11/29 06:50:33;;;;;;;58.27;10.57;;;19.10;99.90;;;;;;4999303;28;20224;-65
2021/11/29 06:52:59;;;;;;;68.83;9.87;;;19.10;99.90;;;;;;4991314;28;20687;-64
2021/11/29 06:55:25;;;;;;;72.13;9.73;;;19.00;99.90;;;;;;5001544;28;20529;-64
2021/11/29 06:57:52;;;;;;;68.50;10.17;;;19.00;99.90;;;;;;5031166;28;20319;-65
2021/11/29 07:00:23;;;;;;;69.67;10.57;;;19.00;99.90;;;;;;4993803;28;20205;-64
2021/11/29 07:02:50;;;;;;;66.90;10.37;;;19.00;99.90;;;;;;4999008;28;20209;-64
2021/11/29 07:05:17;;;;;;;53.50;9.73;;;19.00;99.90;;;;;;4998718;28;20192;-66
2021/11/29 07:07:45;;;;;;;83.57;10.77;;;18.90;99.90;;;;;;5000131;28;20193;-66
2021/11/29 07:10:12;;;;;;;60.07;10.03;;;18.90;99.90;;;;;;4995631;28;20658;-66
2021/11/29 07:12:41;;;;;;;55.47;10.80;;;18.90;99.90;;;;;;4993797;28;20290;-64
2021/11/29 07:15:10;;;;;;;80.07;10.73;;;18.90;99.90;;;;;;5030300;28;20181;-65
2021/11/29 07:17:37;;;;;;;65.97;10.03;;;18.90;99.90;;;;;;5002372;28;20195;-66
2021/11/29 07:20:06;;;;;;;76.70;11.60;;;18.90;99.90;;;;;;5002404;28;20210;-65
2021/11/29 07:22:32;;;;;;;70.47;10.93;;;18.90;99.90;;;;;;5033311;28;20202;-65
2021/11/29 07:25:03;;;;;;;56.27;10.23;;;18.90;99.90;;;;;;5000504;28;20204;-64
2021/11/29 07:27:32;;;;;;;62.60;9.90;;;18.90;99.90;;;;;;5009762;28;20815;-65
2021/11/29 07:30:01;;;;;;;62.17;10.23;;;18.90;99.90;;;;;;5005476;28;20213;-64
2021/11/29 07:32:29;;;;;;;71.03;11.13;;;18.80;99.90;;;;;;4997254;28;20192;-65
2021/11/29 07:34:56;;;;;;;66.20;9.30;;;18.90;99.90;;;;;;5006459;28;20200;-65
2021/11/29 07:37:23;;;;;;;51.63;9.33;;;18.90;99.90;;;;;;5007629;28;20193;-65
2021/11/29 07:39:52;;;;;;;75.47;8.73;;;18.90;99.90;;;;;;5006276;28;20200;-64
2021/11/29 07:42:19;;;;;;;64.50;9.33;;;18.90;99.90;;;;;;4996906;28;20200;-65
2021/11/29 07:44:45;;;;;;;44.87;8.63;;;18.90;99.90;;;;;;5005764;28;20275;-65
2021/11/29 07:47:12;;;;;;;36.77;9.13;;;18.90;99.90;;;;;;5036728;28;20527;-66
2021/11/29 07:49:39;;;;;;;47.63;9.27;;;18.90;99.90;;;;;;5005151;28;20216;-63
2021/11/29 07:52:08;;;;;;;59.60;8.30;;;18.90;99.90;;;;;;5006231;28;20212;-63
2021/11/29 07:54:35;;;;;;;52.30;8.57;;;18.90;99.90;;;;;;5008241;28;20407;-65
2021/11/29 07:57:02;;;;;;;50.63;9.50;;;19.00;99.90;;;;;;5007646;28;20188;-64
2021/11/29 07:59:28;;;;;;;69.77;9.47;;;19.00;99.90;;;;;;5007203;28;20701;-64
2021/11/29 08:01:54;;;;;;;53.43;9.50;;;19.00;99.90;;;;;;5004810;28;20200;-66
2021/11/29 08:04:21;;;;;;;47.07;9.30;;;19.10;99.90;;;;;;5038697;28;20227;-66
2021/11/29 08:06:48;;;;;;;60.90;9.27;;;19.10;99.90;;;;;;5007732;28;20638;-64
2021/11/29 08:09:14;;;;;;;55.93;10.33;;;19.10;99.90;;;;;;4989004;28;20270;-66
2021/11/29 08:11:40;;;;;;;55.33;10.53;;;19.10;99.90;;;;;;5001979;28;20229;-65
2021/11/29 08:14:06;;;;;;;55.13;9.50;;;19.20;99.90;;;;;;5000882;28;20185;-67
2021/11/29 08:16:33;;;;;;;60.60;10.17;;;19.30;99.90;;;;;;5017317;28;20231;-66
2021/11/29 08:19:01;;;;;;;62.73;9.77;;;19.30;99.90;;;;;;4997783;28;20192;-66
2021/11/29 08:21:28;;;;;;;69.00;11.27;;;19.40;99.90;;;;;;5003192;28;20224;-65
2021/11/29 08:23:54;;;;;;;88.47;12.13;;;19.40;99.90;;;;;;5004370;28;20203;-65
2021/11/29 08:26:20;;;;;;;71.27;12.40;;;19.50;99.90;;;;;;5002779;28;20197;-66
2021/11/29 08:28:47;;;;;;;63.43;10.23;;;19.60;99.90;;;;;;5002462;28;20694;-65
2021/11/29 08:31:14;;;;;;;59.27;10.43;;;19.60;99.90;;;;;;5001323;28;20221;-65
2021/11/29 08:33:40;;;;;;;53.30;10.10;;;19.70;99.90;;;;;;5004462;28;20689;-65
2021/11/29 08:36:06;;;;;;;60.40;9.73;;;19.70;99.90;;;;;;5003950;28;20189;-65
2021/11/29 08:38:34;;;;;;;61.33;10.37;;;19.80;99.90;;;;;;5004407;28;20193;-65
2021/11/29 08:41:01;;;;;;;62.00;8.93;;;19.90;99.90;;;;;;5004227;28;20197;-66
2021/11/29 08:43:31;;;;;;;60.10;10.50;;;19.90;99.90;;;;;;4997871;28;20235;-65
2021/11/29 08:45:58;;;;;;;61.37;9.73;;;20.10;99.90;;;;;;5003842;28;20201;-65
2021/11/29 08:48:25;;;;;;;71.17;10.00;;;20.20;99.90;;;;;;5005836;28;20208;-65
2021/11/29 08:50:54;;;;;;;72.87;10.80;;;20.30;99.90;;;;;;5004764;28;20355;-66
2021/11/29 08:53:25;;;;;;;59.97;9.87;;;20.30;99.90;;;;;;5005508;28;20242;-65
2021/11/29 08:55:54;;;;;;;68.43;10.93;;;20.30;99.90;;;;;;5005435;28;20189;-65
2021/11/29 08:58:21;;;;;;;75.30;10.50;;;20.40;99.90;;;;;;5032562;28;20654;-65
2021/11/29 09:00:52;;;;;;;61.23;10.00;;;20.50;99.90;;;;;;5021727;28;20653;-65
2021/11/29 09:03:19;;;;;;;61.87;10.00;;;20.60;99.90;;;;;;5018260;28;20196;-65
2021/11/29 09:05:47;;;;;;;63.67;9.97;;;20.70;99.90;;;;;;5001741;28;20303;-66
2021/11/29 09:08:14;;;;;;;68.37;10.23;;;20.70;99.90;;;;;;5001782;28;20201;-65
2021/11/29 09:10:43;;;;;;;72.23;10.60;;;20.70;99.90;;;;;;5001467;28;20929;-65
2021/11/29 09:13:10;;;;;;;56.00;10.00;;;20.70;99.90;;;;;;4999016;28;21471;-65
2021/11/29 09:15:38;;;;;;;64.03;10.27;;;20.70;99.90;;;;;;5009166;28;20203;-65
2021/11/29 09:18:05;;;;;;;63.43;10.40;;;20.80;99.90;;;;;;5005234;28;20689;-65
2021/11/29 09:20:31;;;;;;;66.03;10.53;;;20.80;99.90;;;;;;4978507;28;20204;-65
2021/11/29 09:22:58;;;;;;;66.87;9.83;;;20.90;99.90;;;;;;4999920;28;20199;-66
2021/11/29 09:25:26;;;;;;;66.07;10.83;;;20.90;99.90;;;;;;5002640;28;20255;-66
2021/11/29 09:27:52;;;;;;;62.43;10.90;;;21.00;99.90;;;;;;5003260;28;20310;-66
2021/11/29 09:30:20;;;;;;;70.13;10.70;;;21.10;99.90;;;;;;5003869;28;20366;-66
2021/11/29 09:32:47;;;;;;;56.90;10.53;;;21.10;99.90;;;;;;5017108;28;20281;-66
2021/11/29 09:35:17;;;;;;;60.27;11.23;;;21.10;99.90;;;;;;5005540;28;20199;-66
2021/11/29 09:37:44;;;;;;;70.23;10.10;;;21.10;99.90;;;;;;5005627;28;20200;-67
2021/11/29 09:40:22;;;;;;;65.93;10.20;;;21.40;99.90;;;;;;5003862;28;20268;-66
2021/11/29 09:42:50;;;;;;;76.87;10.47;;;21.50;99.90;;;;;;5003935;28;20196;-66
2021/11/29 09:45:18;;;;;;;63.67;11.03;;;21.50;99.90;;;;;;4997872;28;20677;-67
2021/11/29 09:47:44;;;;;;;70.78;10.75;;;21.50;99.90;;;;;;5003422;28;20972;-67
2021/11/29 09:50:13;;;;;;;55.57;9.90;;;21.50;99.90;;;;;;5004105;28;20242;-67
2021/11/29 09:52:39;;;;;;;62.83;9.53;;;21.50;99.90;;;;;;5001355;28;20189;-66
2021/11/29 09:55:10;;;;;;;78.43;11.27;;;21.50;99.90;;;;;;5031819;28;20200;-66
2021/11/29 09:57:41;;;;;;;84.70;11.70;;;21.60;99.90;;;;;;5017224;28;20343;-66
2021/11/29 10:00:31;;;;;;;69.40;10.60;;;21.60;99.90;;;;;;4999987;28;20677;-66
2021/11/29 10:02:58;;;;;;;66.95;9.93;;;21.90;99.90;;;;;;5014373;28;20205;-66
2021/11/29 10:05:27;;;;;;;70.63;11.43;;;22.00;99.90;;;;;;4986613;28;20197;-66
2021/11/29 10:07:55;;;;;;;57.40;10.17;;;22.10;99.90;;;;;;5022730;28;20212;-66
2021/11/29 10:10:29;;;;;;;77.05;11.25;;;22.10;99.90;;;;;;5002374;28;20216;-66
2021/11/29 10:13:03;;;;;;;104.50;12.33;;;22.20;99.90;;;;;;5002697;28;20192;-65
2021/11/29 10:15:35;;;;;;;79.18;11.07;;;22.30;99.90;;;;;;4998370;28;20898;-65
2021/11/29 10:18:37;;;;;;;63.72;10.48;;;22.40;99.90;;;;;;4997962;28;20199;-66
2021/11/29 10:21:10;;;;;;;68.90;10.43;;;22.80;99.90;;;;;;4978960;28;20591;-66
2021/11/29 10:23:46;;;;;;;69.13;10.70;;;23.20;99.90;;;;;;4999450;28;20278;-65
2021/11/29 10:26:30;;;;;;;79.20;11.05;;;24.70;99.90;;;;;;5001643;28;20180;-66
2021/11/29 10:29:09;;;;;;;78.82;12.45;;;24.40;99.90;;;;;;5003782;28;20195;-66
2021/11/29 10:31:41;;;;;;;68.68;10.90;;;25.90;99.90;;;;;;5000552;28;20659;-65
2021/11/29 10:34:23;;;;;;;66.45;10.45;;;26.40;99.90;;;;;;5003405;28;20978;-66
2021/11/29 10:36:53;;;;;;;87.15;11.90;;;26.90;99.30;;;;;;5002220;28;20201;-66
2021/11/29 10:39:32;;;;;;;74.18;11.77;;;25.90;99.00;;;;;;5001879;28;20188;-66
2021/11/29 10:42:03;;;;;;;85.05;11.77;;;25.10;99.60;;;;;;5031184;28;20284;-66
2021/11/29 10:44:40;;;;;;;63.88;10.55;;;24.60;99.90;;;;;;5015084;28;20235;-66
2021/11/29 10:47:18;;;;;;;71.97;10.43;;;24.40;99.90;;;;;;5010535;28;20192;-66
2021/11/29 10:49:49;;;;;;;76.10;12.02;;;24.30;99.90;;;;;;5000144;28;20323;-66
2021/11/29 10:52:28;;;;;;;72.97;11.05;;;24.30;99.90;;;;;;5005433;28;20242;-66
2021/11/29 10:54:57;;;;;;;78.25;11.85;;;24.30;99.90;;;;;;5006160;28;20204;-65
2021/11/29 10:57:26;;;;;;;85.22;12.43;;;24.30;99.90;;;;;;4994488;28;20748;-66
2021/11/29 10:59:54;;;;;;;74.10;10.68;;;24.20;99.90;;;;;;5000363;28;20546;-65
2021/11/29 11:02:29;;;;;;;72.47;10.20;;;24.10;99.90;;;;;;5002829;28;20185;-66
2021/11/29 11:05:15;;;;;;;65.00;10.10;;;24.10;99.90;;;;;;5006195;28;20192;-66
2021/11/29 11:07:41;;;;;;;92.93;10.93;;;24.10;99.90;;;;;;5002583;28;20196;-66
2021/11/29 11:10:14;;;;;;;81.45;11.35;;;24.10;99.90;;;;;;5006564;28;20698;-66
2021/11/29 11:12:41;;;;;;;88.75;11.10;;;23.90;99.90;;;;;;5005965;28;20464;-66
2021/11/29 11:15:19;;;;;;;62.45;9.43;;;23.80;99.90;;;;;;5006177;28;20192;-66
2021/11/29 11:17:58;;;;;;;62.45;10.68;;;23.70;99.90;;;;;;5001218;28;20640;-66
2021/11/29 11:20:25;;;;;;;65.13;10.10;;;23.70;99.90;;;;;;5002203;28;20203;-66
2021/11/29 11:22:52;;;;;;;60.00;9.73;;;23.60;99.90;;;;;;5007409;28;20220;-66
2021/11/29 11:25:31;;;;;;;59.97;10.43;;;23.60;99.90;;;;;;5008016;28;20195;-66
2021/11/29 11:28:04;;;;;;;82.35;11.45;;;23.60;99.90;;;;;;5000793;28;20211;-66
2021/11/29 11:30:39;;;;;;;53.58;9.13;;;23.60;99.90;;;;;;4989346;28;20855;-66
2021/11/29 11:33:15;;;;;;;66.95;10.93;;;23.50;99.90;;;;;;5006319;28;20661;-66
2021/11/29 11:35:46;;;;;;;73.97;10.20;;;23.60;99.90;;;;;;5007676;28;20210;-66
2021/11/29 11:38:24;;;;;;;69.30;10.82;;;23.60;99.90;;;;;;5008169;28;20580;-66
2021/11/29 11:40:53;;;;;;;65.97;9.80;;;23.60;99.90;;;;;;5005785;28;20275;-66
2021/11/29 11:43:22;;;;;;;69.28;10.25;;;23.60;99.90;;;;;;5002144;28;20201;-66
2021/11/29 11:45:51;;;;;;;54.50;10.23;;;23.60;99.90;;;;;;5005168;28;20193;-66
2021/11/29 11:48:18;;;;;;;51.08;9.82;;;23.60;99.90;;;;;;4999334;28;20205;-66
2021/11/29 11:50:53;;;;;;;63.67;10.05;;;23.60;99.90;;;;;;4999940;28;20221;-65
2021/11/29 11:53:20;;;;;;;58.97;9.32;;;23.60;99.90;;;;;;5002604;28;20200;-65
2021/11/29 11:55:50;;;;;;;78.78;9.95;;;23.60;99.90;;;;;;5004293;28;20189;-65
2021/11/29 11:58:25;;;;;;;48.92;8.88;;;23.50;99.90;;;;;;5007609;28;20193;-65
2021/11/29 12:01:08;;;;;;;60.47;9.40;;;23.40;99.90;;;;;;5005725;28;20188;-66
2021/11/29 12:03:45;;;;;;;68.22;8.98;;;23.30;99.90;;;;;;5019058;28;20205;-66
2021/11/29 12:06:17;;;;;;;63.88;10.38;;;23.30;99.90;;;;;;5003847;28;20192;-65
2021/11/29 12:09:01;;;;;;;61.77;11.10;;;23.30;99.90;;;;;;5005895;28;20251;-65
2021/11/29 12:11:36;;;;;;;42.63;10.77;;;23.30;99.90;;;;;;5005384;28;20216;-65
2021/11/29 12:14:17;;;;;;;45.78;11.27;;;23.30;99.90;;;;;;5003831;28;20195;-65
2021/11/29 12:16:58;;;;;;;50.35;11.20;;;23.10;99.90;;;;;;5005840;28;20185;-65
2021/11/29 12:19:25;;;;;;;44.33;10.95;;;22.90;99.90;;;;;;5001688;28;20185;-65
2021/11/29 12:21:58;;;;;;;39.50;10.70;;;22.80;99.90;;;;;;5000121;28;20203;-65
2021/11/29 12:24:55;;;;;;;50.20;12.52;;;22.70;99.90;;;;;;5005382;28;20193;-65
2021/11/29 12:27:21;;;;;;;51.03;12.75;;;22.60;99.90;;;;;;4970710;28;20221;-65
2021/11/29 12:29:54;;;;;;;47.85;12.93;;;22.50;99.90;;;;;;5003002;28;20235;-65
2021/11/29 12:32:24;;;;;;;46.83;12.27;;;22.40;99.90;;;;;;5004836;28;20332;-65
2021/11/29 12:34:57;;;;;;;46.10;11.90;;;22.30;99.90;;;;;;5006276;28;20185;-65
2021/11/29 12:37:26;;;;;;;46.27;13.00;;;22.30;99.90;;;;;;5005038;28;20243;-65
2021/11/29 12:40:04;;;;;;;38.15;11.90;;;22.20;99.90;;;;;;5006697;28;20193;-65